Time;durP1;ratioP1;P1;durP2;ratioP2;P2;SDS_P1;SDS_P2;PMS_P1;PMS_P2;Temp;Humidity;BMP_temperature;BMP_pressure;BME280_temperature;BME280_humidity;BME280_pressure;Samples;Min_cycle;Max_cycle;Signal;HPM_P1;HPM_P2
2023/01/02 00:00:42;;;;;;;11.30;5.95;;;10.50;99.90;;;;;;6271753;22;20255;-79
2023/01/02 00:03:08;;;;;;;16.25;7.18;;;10.40;99.90;;;;;;6298094;22;20044;-79
2023/01/02 00:05:37;;;;;;;13.48;8.13;;;10.70;99.90;;;;;;6321744;22;20010;-78
2023/01/02 00:08:02;;;;;;;19.60;9.95;;;10.40;99.90;;;;;;6271973;22;20026;-78
2023/01/02 00:10:28;;;;;;;18.60;9.88;;;10.90;99.90;;;;;;6297682;22;20305;-80
2023/01/02 00:12:54;;;;;;;17.08;9.38;;;11.00;99.90;;;;;;6270441;22;20312;-79
2023/01/02 00:15:19;;;;;;;20.23;10.75;;;10.60;99.90;;;;;;6324563;22;20197;-80
2023/01/02 00:17:45;;;;;;;18.40;9.55;;;11.00;99.90;;;;;;6322431;22;20006;-79
2023/01/02 00:20:11;;;;;;;15.20;9.73;;;10.80;99.90;;;;;;6323741;22;20094;-79
2023/01/02 00:22:39;;;;;;;21.88;11.13;;;10.80;99.90;;;;;;6322320;22;20025;-80
2023/01/02 00:25:06;;;;;;;14.10;8.63;;;10.70;99.90;;;;;;6273846;22;20279;-81
2023/01/02 00:27:32;;;;;;;21.88;11.35;;;10.80;99.90;;;;;;6298300;22;20010;-80
2023/01/02 00:29:58;;;;;;;13.43;8.68;;;11.20;99.90;;;;;;6298298;22;20097;-81
2023/01/02 00:32:23;;;;;;;17.15;10.35;;;10.80;99.90;;;;;;6271670;22;20014;-81
2023/01/02 00:34:49;;;;;;;19.02;10.40;;;11.20;99.90;;;;;;6297328;22;20013;-80
2023/01/02 00:37:15;;;;;;;16.77;9.57;;;11.20;99.90;;;;;;6272347;22;20007;-80
2023/01/02 00:39:41;;;;;;;20.00;11.02;;;10.90;99.90;;;;;;6272051;22;20316;-79
2023/01/02 00:42:06;;;;;;;17.38;10.40;;;10.90;99.90;;;;;;6297789;22;20017;-80
2023/01/02 00:44:32;;;;;;;13.23;7.20;;;11.30;99.90;;;;;;6296571;22;20051;-80
2023/01/02 00:46:58;;;;;;;19.10;10.23;;;10.90;99.90;;;;;;6323088;22;20018;-79
2023/01/02 00:49:23;;;;;;;14.98;8.60;;;10.90;99.90;;;;;;6323137;22;20281;-80
2023/01/02 00:51:49;;;;;;;13.38;7.50;;;11.30;99.90;;;;;;6322298;22;20015;-79
2023/01/02 00:54:15;;;;;;;13.20;8.05;;;11.10;99.90;;;;;;6297480;22;20014;-80
2023/01/02 00:56:40;;;;;;;14.60;8.82;;;11.10;99.90;;;;;;6323398;22;20008;-79
2023/01/02 00:59:06;;;;;;;12.18;7.30;;;11.20;99.90;;;;;;6350344;22;20115;-81
2023/01/02 01:01:32;;;;;;;12.82;7.65;;;11.00;99.90;;;;;;6298156;22;20299;-81
2023/01/02 01:03:58;;;;;;;13.75;8.05;;;11.00;99.90;;;;;;6297929;22;20072;-80
2023/01/02 01:06:24;;;;;;;13.25;6.97;;;11.10;99.90;;;;;;6298454;22;20017;-81
2023/01/02 01:08:50;;;;;;;10.52;6.75;;;11.30;99.90;;;;;;6297222;22;20038;-79
2023/01/02 01:11:16;;;;;;;11.18;6.82;;;11.30;99.90;;;;;;6323886;22;20018;-80
2023/01/02 01:13:45;;;;;;;11.90;6.13;;;11.10;99.90;;;;;;6349879;22;20197;-80
2023/01/02 01:16:14;;;;;;;8.55;5.25;;;11.40;99.90;;;;;;6324964;22;20065;-79
2023/01/02 01:18:40;;;;;;;10.80;6.90;;;11.40;99.90;;;;;;6325247;22;20018;-80
2023/01/02 01:21:07;;;;;;;8.73;5.90;;;11.40;99.90;;;;;;6351986;22;20260;-81
2023/01/02 01:23:33;;;;;;;7.65;4.68;;;11.40;99.90;;;;;;6300661;22;20059;-80
2023/01/02 01:26:03;;;;;;;12.38;7.30;;;11.30;99.90;;;;;;6323924;22;20037;-80
2023/01/02 01:28:29;;;;;;;12.27;6.93;;;11.00;99.90;;;;;;6350824;22;20069;-80
2023/01/02 01:30:55;;;;;;;11.18;6.88;;;11.30;99.90;;;;;;6298932;22;20018;-80
2023/01/02 01:33:20;;;;;;;10.73;7.00;;;11.30;99.90;;;;;;6325424;22;20009;-80
2023/01/02 01:35:46;;;;;;;14.05;7.63;;;11.30;99.90;;;;;;6299480;22;20034;-79
2023/01/02 01:38:12;;;;;;;14.65;7.68;;;11.30;99.90;;;;;;6297814;22;20480;-79
2023/01/02 01:40:38;;;;;;;13.93;8.75;;;11.10;99.90;;;;;;6274236;22;20006;-79
2023/01/02 01:43:12;;;;;;;13.77;7.63;;;11.40;99.90;;;;;;6324154;22;20018;-79
2023/01/02 01:45:42;;;;;;;12.07;7.47;;;11.50;99.90;;;;;;6325752;22;20018;-79
2023/01/02 01:48:11;;;;;;;19.20;9.65;;;11.30;99.90;;;;;;6324574;22;20266;-79
2023/01/02 01:50:38;;;;;;;16.38;10.52;;;11.40;99.90;;;;;;6325413;22;20014;-79
2023/01/02 01:53:13;;;;;;;18.83;11.05;;;11.50;99.90;;;;;;6299505;22;20003;-81
2023/01/02 01:55:51;;;;;;;20.08;12.65;;;9.90;99.90;;;;;;6324028;22;20058;-79
2023/01/02 01:58:23;;;;;;;19.98;13.13;;;11.30;99.90;;;;;;6325326;22;20094;-81
2023/01/02 02:00:49;;;;;;;24.73;13.02;;;11.60;99.90;;;;;;6325758;22;20059;-79
2023/01/02 02:03:19;;;;;;;23.80;13.93;;;11.20;99.90;;;;;;6349521;22;20069;-78
2023/01/02 02:05:46;;;;;;;27.65;14.77;;;11.30;99.90;;;;;;6322984;22;20014;-77
2023/01/02 02:08:25;;;;;;;31.35;14.85;;;11.40;99.90;;;;;;6325004;22;20068;-78
2023/01/02 02:10:53;;;;;;;21.90;13.75;;;11.30;99.90;;;;;;6323585;22;20126;-77
2023/01/02 02:13:20;;;;;;;23.15;13.18;;;11.70;99.90;;;;;;6324171;22;20043;-77
2023/01/02 02:16:14;;;;;;;26.17;14.77;;;11.30;99.90;;;;;;6349644;22;20013;-78
2023/01/02 02:18:55;;;;;;;23.43;13.93;;;11.40;99.90;;;;;;6346753;22;20006;-78
2023/01/02 02:21:41;;;;;;;23.92;14.52;;;11.50;99.90;;;;;;6350466;22;20014;-79
2023/01/02 02:24:24;;;;;;;21.98;13.07;;;11.70;99.90;;;;;;6349802;22;20014;-78
2023/01/02 02:27:24;;;;;;;23.75;13.57;;;11.70;99.90;;;;;;6324049;22;20047;-78
2023/01/02 02:29:52;;;;;;;22.63;12.93;;;11.80;99.90;;;;;;6323807;22;20011;-78
2023/01/02 02:32:33;;;;;;;20.45;12.43;;;11.40;99.90;;;;;;6349355;22;20320;-78
2023/01/02 02:35:30;;;;;;;26.13;14.00;;;11.80;99.90;;;;;;6324255;22;20010;-78
2023/01/02 02:38:30;;;;;;;18.65;11.82;;;11.60;99.90;;;;;;6323440;22;20006;-78
2023/01/02 02:41:33;;;;;;;18.77;12.18;;;11.60;99.90;;;;;;6298173;22;20067;-78
2023/01/02 02:44:07;;;;;;;22.95;12.68;;;11.50;99.90;;;;;;6322866;22;20316;-78
2023/01/02 02:46:58;;;;;;;21.55;13.38;;;11.70;99.90;;;;;;6349133;22;20007;-79
2023/01/02 02:49:53;;;;;;;24.90;13.93;;;11.60;99.90;;;;;;6323320;22;20201;-79
2023/01/02 02:52:19;;;;;;;23.10;13.38;;;11.60;99.90;;;;;;6322815;22;20245;-77
2023/01/02 02:54:59;;;;;;;22.83;13.82;;;12.00;99.90;;;;;;6323463;22;20014;-78
2023/01/02 02:57:25;;;;;;;24.73;13.90;;;11.70;99.90;;;;;;6323541;22;20186;-78
2023/01/02 02:59:54;;;;;;;20.13;12.18;;;12.00;99.90;;;;;;6323813;22;20052;-78
2023/01/02 03:02:20;;;;;;;24.55;12.35;;;11.60;99.90;;;;;;6272679;22;20010;-79
2023/01/02 03:05:07;;;;;;;23.15;12.48;;;11.60;99.90;;;;;;6297684;22;20017;-80
2023/01/02 03:07:36;;;;;;;20.48;13.27;;;11.60;99.90;;;;;;6303695;22;20022;-80
2023/01/02 03:10:43;;;;;;;20.17;12.75;;;12.00;99.90;;;;;;6323613;22;20025;-78
2023/01/02 03:13:27;;;;;;;22.67;12.93;;;11.60;99.90;;;;;;6300051;22;20039;-79
2023/01/02 03:16:15;;;;;;;22.38;12.85;;;11.60;99.90;;;;;;6321896;22;20014;-78
2023/01/02 03:19:08;;;;;;;23.35;12.98;;;11.70;99.90;;;;;;6350136;22;20103;-77
2023/01/02 03:22:00;;;;;;;21.73;12.77;;;11.90;99.90;;;;;;6349966;22;20014;-79
2023/01/02 03:24:27;;;;;;;17.67;11.32;;;11.70;99.90;;;;;;6321261;22;20422;-80
2023/01/02 03:27:00;;;;;;;18.73;12.45;;;11.90;99.90;;;;;;6297545;22;20196;-77
2023/01/02 03:29:53;;;;;;;24.42;12.43;;;11.80;99.90;;;;;;6349172;22;20010;-77
2023/01/02 03:32:37;;;;;;;20.77;12.02;;;11.70;99.90;;;;;;6336354;22;20014;-78
2023/01/02 03:35:14;;;;;;;24.60;13.32;;;11.90;99.90;;;;;;6322691;22;20010;-79
2023/01/02 03:37:47;;;;;;;20.85;13.05;;;11.70;99.90;;;;;;6324053;22;20006;-79
2023/01/02 03:40:18;;;;;;;23.80;13.90;;;13.70;99.90;;;;;;6322515;22;20058;-79
2023/01/02 03:43:06;;;;;;;21.25;13.38;;;11.90;99.90;;;;;;6349197;22;20071;-80
2023/01/02 03:45:44;;;;;;;21.58;13.32;;;11.70;99.90;;;;;;6323307;22;20082;-80
2023/01/02 03:48:32;;;;;;;23.60;14.10;;;11.80;99.90;;;;;;6324638;22;20116;-79
2023/01/02 03:51:00;;;;;;;21.40;12.57;;;12.20;99.90;;;;;;6349023;22;20189;-80
2023/01/02 03:53:27;;;;;;;21.73;13.88;;;12.10;99.90;;;;;;6323933;22;20006;-79
2023/01/02 03:56:14;;;;;;;27.55;13.45;;;11.80;99.90;;;;;;6321459;22;20006;-77
2023/01/02 03:58:56;;;;;;;23.95;14.05;;;11.70;99.90;;;;;;6349093;22;20006;-79
2023/01/02 04:01:44;;;;;;;26.75;14.82;;;11.90;99.90;;;;;;6349428;22;20011;-79
2023/01/02 04:04:34;;;;;;;23.33;13.57;;;13.70;99.90;;;;;;6318005;22;20202;-79
2023/01/02 04:07:07;;;;;;;23.42;12.73;;;12.20;99.90;;;;;;6317297;22;20179;-78
2023/01/02 04:09:34;;;;;;;32.60;14.93;;;12.10;99.90;;;;;;6342128;22;20048;-78
2023/01/02 04:12:14;;;;;;;31.13;14.50;;;12.20;99.90;;;;;;6316712;22;20045;-79
2023/01/02 04:14:45;;;;;;;25.05;15.32;;;11.80;99.90;;;;;;6344574;22;20362;-80
2023/01/02 04:17:15;;;;;;;24.25;14.00;;;12.00;99.90;;;;;;6341207;22;20193;-79
2023/01/02 04:19:48;;;;;;;27.70;14.82;;;12.10;99.90;;;;;;6317587;22;20010;-77
2023/01/02 04:22:23;;;;;;;29.98;14.68;;;12.10;99.90;;;;;;6342833;22;20277;-80
2023/01/02 04:24:51;;;;;;;;;;;11.90;99.90;;;;;;6318969;22;20014;-80
2023/01/02 04:27:23;;;;;;;27.25;14.38;;;11.70;99.90;;;;;;6316216;22;19918;-80
2023/01/02 04:29:48;;;;;;;25.88;14.70;;;12.10;99.90;;;;;;6344644;22;20022;-79
2023/01/02 04:32:17;;;;;;;29.40;15.25;;;12.10;99.90;;;;;;6291207;22;20268;-79
2023/01/02 04:34:45;;;;;;;25.10;14.48;;;11.80;99.90;;;;;;6344001;22;20013;-79
2023/01/02 04:37:29;;;;;;;30.75;15.25;;;11.90;99.90;;;;;;6317017;22;20010;-81
2023/01/02 04:40:09;;;;;;;23.02;15.07;;;12.10;99.90;;;;;;6318849;22;20101;-79
2023/01/02 04:42:35;;;;;;;23.50;15.13;;;12.30;99.90;;;;;;6318839;22;20239;-79
2023/01/02 04:45:01;;;;;;;23.98;14.75;;;12.20;99.90;;;;;;6317589;22;20018;-78
2023/01/02 04:47:29;;;;;;;28.30;14.38;;;12.00;99.90;;;;;;6316887;22;20050;-80
2023/01/02 04:49:55;;;;;;;25.75;13.85;;;12.10;99.90;;;;;;6292807;22;20060;-80
2023/01/02 04:52:20;;;;;;;24.05;14.05;;;12.40;99.90;;;;;;6267139;22;20019;-80
2023/01/02 04:54:49;;;;;;;20.52;13.15;;;12.00;99.90;;;;;;6292835;22;20014;-79
2023/01/02 04:57:15;;;;;;;21.70;13.32;;;12.00;99.90;;;;;;6316617;22;20010;-80
2023/01/02 04:59:40;;;;;;;23.88;12.68;;;12.40;99.90;;;;;;6292167;22;20099;-80
2023/01/02 05:02:09;;;;;;;20.83;11.05;;;12.00;99.90;;;;;;6291963;22;20019;-78
2023/01/02 05:04:34;;;;;;;20.30;11.40;;;12.40;99.90;;;;;;6292172;22;20015;-80
2023/01/02 05:07:04;;;;;;;17.92;10.25;;;12.00;99.90;;;;;;6317447;22;20367;-79
2023/01/02 05:09:30;;;;;;;18.60;11.93;;;12.60;99.90;;;;;;6344579;22;20106;-80
2023/01/02 05:11:55;;;;;;;24.98;11.70;;;12.30;99.90;;;;;;6292636;22;20007;-79
2023/01/02 05:14:23;;;;;;;19.48;10.45;;;11.90;99.90;;;;;;6318395;22;20331;-80
2023/01/02 05:16:49;;;;;;;21.38;10.50;;;12.20;99.90;;;;;;6345080;22;20045;-80
2023/01/02 05:19:15;;;;;;;17.45;10.63;;;12.40;99.90;;;;;;6317867;22;20006;-81
2023/01/02 05:24:26;;;;;;;19.13;9.88;;;12.00;99.90;;;;;;6322532;22;20011;-81
2023/01/02 05:26:56;;;;;;;17.52;10.02;;;11.90;99.90;;;;;;6318842;22;20189;-81
2023/01/02 05:29:24;;;;;;;16.48;9.93;;;12.10;99.90;;;;;;6344708;22;20022;-80
2023/01/02 05:31:50;;;;;;;14.95;9.52;;;11.90;99.90;;;;;;6345495;22;20010;-80
2023/01/02 05:34:16;;;;;;;17.52;10.55;;;11.90;99.90;;;;;;6319009;22;20171;-81
2023/01/02 05:36:45;;;;;;;17.98;9.85;;;12.00;99.90;;;;;;6319813;22;20006;-81
2023/01/02 05:39:12;;;;;;;14.88;9.85;;;12.10;99.90;;;;;;6346037;22;20007;-81
2023/01/02 05:41:38;;;;;;;13.80;9.15;;;12.20;99.90;;;;;;6319851;22;20006;-82
2023/01/02 05:44:07;;;;;;;15.75;9.55;;;12.00;99.90;;;;;;6345564;22;20099;-81
2023/01/02 05:46:33;;;;;;;15.02;8.93;;;12.40;99.90;;;;;;6319169;22;20007;-80
2023/01/02 05:48:59;;;;;;;16.13;9.82;;;11.90;99.90;;;;;;6318005;22;20015;-79
2023/01/02 05:51:24;;;;;;;15.70;9.45;;;12.10;99.90;;;;;;6267749;22;20175;-81
2023/01/02 05:53:53;;;;;;;19.73;11.95;;;12.30;99.90;;;;;;6268491;22;20007;-80
2023/01/02 05:56:20;;;;;;;16.58;10.73;;;12.00;99.90;;;;;;6319113;22;20044;-81
2023/01/02 05:58:49;;;;;;;21.05;11.00;;;11.90;99.90;;;;;;6320524;22;20003;-79
2023/01/02 06:01:24;;;;;;;20.15;12.55;;;11.00;99.90;;;;;;6319723;22;20011;-80
2023/01/02 06:03:53;;;;;;;22.52;12.77;;;12.50;99.90;;;;;;6325225;22;20010;-81
2023/01/02 06:06:20;;;;;;;17.95;10.70;;;12.00;99.90;;;;;;6325667;22;20026;-81
2023/01/02 06:08:47;;;;;;;25.90;11.60;;;12.40;99.90;;;;;;6324829;22;20088;-81
2023/01/02 06:11:13;;;;;;;20.23;11.00;;;12.00;99.90;;;;;;6274203;22;20049;-81
2023/01/02 06:13:39;;;;;;;19.60;12.07;;;12.50;99.90;;;;;;6326278;22;20013;-81
2023/01/02 06:16:09;;;;;;;19.58;11.40;;;11.00;99.90;;;;;;6326223;22;20006;-80
2023/01/02 06:18:39;;;;;;;21.23;11.80;;;12.00;99.90;;;;;;6300843;22;20275;-80
2023/01/02 06:21:14;;;;;;;20.60;12.20;;;12.10;99.90;;;;;;6324476;22;20018;-80
2023/01/02 06:23:40;;;;;;;24.88;11.88;;;12.40;99.90;;;;;;6350663;22;20014;-79
2023/01/02 06:26:14;;;;;;;17.25;9.75;;;12.50;99.90;;;;;;6298539;22;20037;-79
2023/01/02 06:28:44;;;;;;;17.92;10.00;;;12.50;99.90;;;;;;6324453;22;20010;-79
2023/01/02 06:31:12;;;;;;;16.75;10.88;;;12.40;99.90;;;;;;6322548;22;20301;-78
2023/01/02 06:33:38;;;;;;;13.98;8.55;;;12.10;99.90;;;;;;6325119;22;20048;-78
2023/01/02 06:36:14;;;;;;;11.77;7.72;;;12.20;99.90;;;;;;6323964;22;20085;-80
2023/01/02 06:38:40;;;;;;;10.35;6.47;;;12.10;99.90;;;;;;6324760;22;20014;-80
2023/01/02 06:41:08;;;;;;;6.28;4.18;;;12.00;99.90;;;;;;6324504;22;20017;-79
2023/01/02 06:43:35;;;;;;;6.10;4.40;;;12.30;99.90;;;;;;6349552;22;20037;-79
2023/01/02 06:46:04;;;;;;;4.85;3.83;;;12.50;99.90;;;;;;6350536;22;20010;-80
2023/01/02 06:48:33;;;;;;;8.50;4.10;;;12.10;99.90;;;;;;6325213;22;20010;-80
2023/01/02 06:51:04;;;;;;;5.60;3.92;;;12.30;99.90;;;;;;6325560;22;20052;-80
2023/01/02 06:53:36;;;;;;;5.03;3.53;;;12.40;99.90;;;;;;6300132;22;20014;-79
2023/01/02 06:56:02;;;;;;;4.80;3.53;;;11.90;99.90;;;;;;6324351;22;20066;-80
2023/01/02 06:58:30;;;;;;;4.45;4.03;;;12.00;99.90;;;;;;6299882;22;20021;-80
2023/01/02 07:01:02;;;;;;;6.60;4.95;;;12.30;99.90;;;;;;6298689;22;20025;-79
2023/01/02 07:03:27;;;;;;;6.90;4.47;;;12.20;99.90;;;;;;6323390;22;20065;-78
2023/01/02 07:05:53;;;;;;;5.13;4.50;;;12.30;99.90;;;;;;6297703;22;20297;-80
2023/01/02 07:08:19;;;;;;;7.93;5.20;;;12.30;99.90;;;;;;6349762;22;20033;-72
2023/01/02 07:10:44;;;;;;;6.68;5.13;;;12.20;99.90;;;;;;6350042;22;20065;-79
2023/01/02 07:13:10;;;;;;;6.70;5.03;;;12.00;99.90;;;;;;6324444;22;20010;-78
2023/01/02 07:15:36;;;;;;;6.20;5.10;;;12.20;99.90;;;;;;6324527;22;20010;-80
2023/01/02 07:18:01;;;;;;;7.00;5.43;;;11.80;99.90;;;;;;6297922;22;20014;-78
2023/01/02 07:20:27;;;;;;;6.57;5.03;;;11.90;99.90;;;;;;6350472;22;20017;-78
2023/01/02 07:22:53;;;;;;;8.15;5.95;;;11.70;99.90;;;;;;6323720;22;20010;-79
2023/01/02 07:25:20;;;;;;;8.15;4.20;;;11.70;99.90;;;;;;6349206;22;20018;-80
2023/01/02 07:27:46;;;;;;;8.35;3.88;;;11.00;99.90;;;;;;6297872;22;20584;-81
2023/01/02 07:30:15;;;;;;;6.38;3.30;;;10.60;99.90;;;;;;6298195;22;20018;-82
2023/01/02 07:32:47;;;;;;;3.42;2.30;;;10.40;99.90;;;;;;6350784;22;20029;-80
2023/01/02 07:35:13;;;;;;;4.65;2.75;;;10.50;99.90;;;;;;6325238;22;20018;-81
2023/01/02 07:37:39;;;;;;;4.97;2.90;;;9.90;99.90;;;;;;6351878;22;20002;-81
2023/01/02 07:40:05;;;;;;;4.65;2.80;;;9.90;99.90;;;;;;6350238;22;20210;-80
2023/01/02 07:42:31;;;;;;;4.07;2.28;;;10.00;99.90;;;;;;6351211;22;20006;-81
2023/01/02 07:44:59;;;;;;;2.92;1.65;;;9.70;99.90;;;;;;6324557;22;20024;-78
2023/01/02 07:47:25;;;;;;;2.40;1.50;;;9.40;99.90;;;;;;6273160;22;20018;-79
2023/01/02 07:49:50;;;;;;;3.13;1.17;;;9.80;99.90;;;;;;6298058;22;20643;-79
2023/01/02 07:52:16;;;;;;;2.97;1.10;;;9.30;99.90;;;;;;6272202;22;20014;-79
2023/01/02 07:54:45;;;;;;;2.97;1.02;;;9.30;99.90;;;;;;6322931;22;20006;-80
2023/01/02 07:57:14;;;;;;;1.08;0.98;;;9.60;99.90;;;;;;6324912;22;20040;-81
2023/01/02 07:59:40;;;;;;;2.47;1.10;;;9.40;99.90;;;;;;6325196;22;20007;-80
2023/01/02 08:02:14;;;;;;;5.13;1.45;;;9.20;99.90;;;;;;6273049;22;20025;-81
2023/01/02 08:04:40;;;;;;;2.78;1.20;;;9.00;99.90;;;;;;6324045;22;20014;-80
2023/01/02 08:07:09;;;;;;;2.53;1.50;;;9.00;99.90;;;;;;6321521;22;20034;-80
2023/01/02 08:09:34;;;;;;;3.28;1.30;;;9.20;99.90;;;;;;6323829;22;20024;-77
2023/01/02 08:12:00;;;;;;;2.63;1.30;;;9.40;99.90;;;;;;6347932;22;20006;-75
2023/01/02 08:14:26;;;;;;;2.92;1.40;;;9.10;99.90;;;;;;6348588;22;20216;-75
2023/01/02 08:16:51;;;;;;;4.60;1.48;;;9.40;99.90;;;;;;6323127;22;20006;-77
2023/01/02 08:19:17;;;;;;;3.58;1.40;;;9.20;99.90;;;;;;6321919;22;20288;-75
2023/01/02 08:21:43;;;;;;;5.53;1.45;;;9.40;99.90;;;;;;6320699;22;20064;-76
2023/01/02 08:24:08;;;;;;;3.78;1.30;;;8.90;99.90;;;;;;6297183;22;20061;-76
2023/01/02 08:26:35;;;;;;;3.75;1.50;;;9.40;99.90;;;;;;6348445;22;20006;-79
2023/01/02 08:29:01;;;;;;;4.03;1.20;;;9.30;99.90;;;;;;6298205;22;20014;-76
2023/01/02 08:31:27;;;;;;;4.03;1.25;;;8.90;99.90;;;;;;6347869;22;20065;-79
2023/01/02 08:33:52;;;;;;;2.72;1.27;;;9.10;99.90;;;;;;6321127;22;20036;-78
2023/01/02 08:36:18;;;;;;;4.72;1.40;;;9.10;99.90;;;;;;6321670;22;20069;-79
2023/01/02 08:38:44;;;;;;;2.58;1.60;;;9.40;99.90;;;;;;6323277;22;20452;-77
2023/01/02 08:41:11;;;;;;;2.05;1.13;;;9.10;99.90;;;;;;6322713;22;20011;-81
2023/01/02 08:43:37;;;;;;;4.20;2.03;;;9.40;99.90;;;;;;6323546;22;20024;-77
2023/01/02 08:46:05;;;;;;;4.93;1.80;;;9.00;99.90;;;;;;6321926;22;20383;-78
2023/01/02 08:48:31;;;;;;;6.38;2.00;;;9.00;99.90;;;;;;6272164;22;20056;-76
2023/01/02 08:50:57;;;;;;;4.57;1.92;;;9.30;99.90;;;;;;6348343;22;20056;-76
2023/01/02 08:53:25;;;;;;;3.88;2.05;;;9.10;99.90;;;;;;6297751;22;20095;-79
2023/01/02 08:55:51;;;;;;;4.05;2.08;;;9.50;99.90;;;;;;6297389;22;20014;-79
2023/01/02 08:58:17;;;;;;;4.18;1.70;;;9.10;99.90;;;;;;6319400;22;20003;-77
2023/01/02 09:00:42;;;;;;;5.28;1.92;;;9.40;99.90;;;;;;6321690;22;20022;-80
2023/01/02 09:03:08;;;;;;;4.53;1.60;;;9.10;99.90;;;;;;6321147;22;20461;-77
2023/01/02 09:05:34;;;;;;;3.15;1.50;;;9.00;99.90;;;;;;6295164;22;20049;-77
2023/01/02 09:08:01;;;;;;;2.47;1.52;;;9.00;99.90;;;;;;6322131;22;20050;-79
2023/01/02 09:10:26;;;;;;;4.95;2.05;;;9.40;99.90;;;;;;6348212;22;20019;-77
2023/01/02 09:12:52;;;;;;;6.60;1.90;;;9.40;99.90;;;;;;6320646;22;20224;-77
2023/01/02 09:15:18;;;;;;;4.25;2.00;;;9.00;99.90;;;;;;6348032;22;20002;-77
2023/01/02 09:17:44;;;;;;;4.75;2.22;;;9.10;99.90;;;;;;6320886;22;20006;-78
2023/01/02 09:20:10;;;;;;;4.38;1.92;;;9.00;99.90;;;;;;6319562;22;20025;-77
2023/01/02 09:22:35;;;;;;;2.72;1.83;;;9.40;99.90;;;;;;6319872;22;20320;-77
2023/01/02 09:25:01;;;;;;;5.18;1.92;;;9.50;99.90;;;;;;6321934;22;20026;-73
2023/01/02 09:27:27;;;;;;;3.38;2.00;;;9.10;99.90;;;;;;6346671;22;20073;-74
2023/01/02 09:29:53;;;;;;;5.50;2.33;;;9.40;99.90;;;;;;6319472;22;20011;-78
2023/01/02 09:32:19;;;;;;;3.28;2.03;;;8.90;99.90;;;;;;6345889;22;20014;-79
2023/01/02 09:34:49;;;;;;;4.95;2.22;;;9.30;99.90;;;;;;6323754;22;20014;-76
2023/01/02 09:37:16;;;;;;;4.80;2.45;;;9.00;99.90;;;;;;6322413;22;20015;-77
2023/01/02 09:39:42;;;;;;;5.00;2.20;;;9.20;99.90;;;;;;6349804;22;20017;-77
2023/01/02 09:42:13;;;;;;;6.47;2.00;;;9.50;99.90;;;;;;6322476;22;20017;-73
2023/01/02 09:44:44;;;;;;;3.50;1.80;;;9.10;99.90;;;;;;6349518;22;20010;-77
2023/01/02 09:47:09;;;;;;;2.47;1.70;;;9.40;99.90;;;;;;6323232;22;20010;-77
2023/01/02 09:50:02;;;;;;;5.03;1.90;;;9.10;99.90;;;;;;6349957;22;20170;-76
2023/01/02 09:52:43;;;;;;;4.95;1.88;;;9.10;99.90;;;;;;6349858;22;20006;-77
2023/01/02 09:55:48;;;;;;;3.53;2.00;;;9.00;99.90;;;;;;6350389;22;20006;-77
2023/01/02 09:58:29;;;;;;;4.07;1.98;;;9.50;99.90;;;;;;6349336;22;20019;-78
2023/01/02 10:00:56;;;;;;;3.65;2.10;;;9.60;99.90;;;;;;6349539;22;20010;-77
2023/01/02 10:03:38;;;;;;;3.85;2.40;;;9.40;99.90;;;;;;6349151;22;20335;-78
2023/01/02 10:06:09;;;;;;;6.20;2.63;;;9.50;99.90;;;;;;6349283;22;20022;-77
2023/01/02 10:09:13;;;;;;;5.03;2.45;;;9.10;99.90;;;;;;6323916;22;20460;-77
2023/01/02 10:12:09;;;;;;;3.63;2.28;;;9.50;99.90;;;;;;6349713;22;20021;-77
2023/01/02 10:15:01;;;;;;;5.53;2.35;;;9.70;99.90;;;;;;6322593;22;20018;-77
2023/01/02 10:17:30;;;;;;;5.53;2.47;;;9.70;99.90;;;;;;6321498;22;20025;-77
2023/01/02 10:20:28;;;;;;;6.00;2.80;;;9.60;99.90;;;;;;6346111;22;20025;-76
2023/01/02 10:23:01;;;;;;;4.50;2.55;;;9.70;99.90;;;;;;6341795;22;20042;-75
2023/01/02 10:25:36;;;;;;;4.97;2.58;;;9.80;99.90;;;;;;6347817;22;20047;-77
2023/01/02 10:28:41;;;;;;;4.43;2.40;;;9.60;99.90;;;;;;6348077;22;20235;-76
2023/01/02 10:31:20;;;;;;;5.32;2.08;;;9.60;99.90;;;;;;6300997;22;20042;-76
2023/01/02 10:33:56;;;;;;;4.40;2.20;;;9.60;99.90;;;;;;6321611;22;20041;-77
2023/01/02 10:36:26;;;;;;;4.90;2.40;;;9.30;99.90;;;;;;6347705;22;20033;-78
2023/01/02 10:38:56;;;;;;;5.30;2.53;;;9.60;99.90;;;;;;6322059;22;20010;-77
2023/01/02 10:41:23;;;;;;;7.38;3.30;;;9.40;99.90;;;;;;6345863;22;20006;-77
2023/01/02 10:43:53;;;;;;;6.88;2.50;;;9.70;99.90;;;;;;6346576;22;20010;-77
2023/01/02 10:46:19;;;;;;;7.78;3.33;;;9.70;99.90;;;;;;6346820;22;20524;-78
2023/01/02 10:48:45;;;;;;;5.25;2.55;;;9.40;99.90;;;;;;6322032;22;20006;-78
2023/01/02 10:51:15;;;;;;;4.97;2.55;;;9.50;99.90;;;;;;6320939;22;20067;-78
2023/01/02 10:53:41;;;;;;;4.57;2.67;;;9.40;99.90;;;;;;6347578;22;20070;-78
2023/01/02 10:56:17;;;;;;;7.20;2.90;;;9.20;99.90;;;;;;6322216;22;20041;-77
2023/01/02 10:58:48;;;;;;;5.70;2.47;;;9.60;99.90;;;;;;6321472;22;20055;-77
2023/01/02 11:01:19;;;;;;;4.70;2.50;;;9.20;99.90;;;;;;6321265;22;20461;-77
2023/01/02 11:03:46;;;;;;;5.38;3.00;;;9.80;99.90;;;;;;6322686;22;20043;-77
2023/01/02 11:06:58;;;;;;;2.90;1.95;;;9.80;99.90;;;;;;6349270;22;20032;-78
2023/01/02 11:09:28;;;;;;;6.15;2.13;;;9.60;99.90;;;;;;6313633;22;20042;-76
2023/01/02 11:12:09;;;;;;;3.95;2.10;;;9.90;99.90;;;;;;6321667;22;20014;-77
2023/01/02 11:14:36;;;;;;;3.45;2.05;;;9.30;99.90;;;;;;6321192;22;20010;-76
2023/01/02 11:17:11;;;;;;;3.67;2.10;;;9.80;99.90;;;;;;6321954;22;20059;-76
2023/01/02 11:19:45;;;;;;;;;;;9.20;99.90;;;;;;6320410;22;20010;-77
2023/01/02 11:22:12;;;;;;;4.47;2.30;;;9.70;99.90;;;;;;6346752;22;19914;-77
2023/01/02 11:24:59;;;;;;;5.72;3.17;;;9.70;99.90;;;;;;6345618;22;20048;-76
2023/01/02 11:27:36;;;;;;;4.78;2.40;;;9.40;99.90;;;;;;6320669;22;20016;-76
2023/01/02 11:30:06;;;;;;;5.53;3.45;;;10.00;99.90;;;;;;6346839;22;20548;-76
2023/01/02 11:32:38;;;;;;;8.80;4.22;;;9.50;99.90;;;;;;6346357;22;20013;-76
2023/01/02 11:35:08;;;;;;;6.80;2.53;;;10.20;99.90;;;;;;6321552;22;20013;-75
2023/01/02 11:37:34;;;;;;;11.38;2.40;;;10.20;99.90;;;;;;6321317;22;20321;-76
2023/01/02 11:40:23;;;;;;;3.65;1.85;;;9.70;99.90;;;;;;6347899;22;20044;-76
2023/01/02 11:45:36;;;;;;;4.30;1.65;;;9.70;99.90;;;;;;6346379;22;20029;-76
2023/01/02 11:48:11;;;;;;;4.70;1.90;;;10.10;99.90;;;;;;6347885;22;20010;-76
2023/01/02 11:50:38;;;;;;;4.07;1.98;;;10.40;99.90;;;;;;6320288;22;20592;-76
2023/01/02 11:53:13;;;;;;;6.25;1.77;;;10.40;99.90;;;;;;6347267;22;20061;-76
2023/01/02 11:56:01;;;;;;;5.80;2.15;;;9.80;99.90;;;;;;6319403;22;20328;-76
2023/01/02 11:58:36;;;;;;;2.85;1.67;;;10.30;99.90;;;;;;6320358;22;20058;-77
2023/01/02 12:01:33;;;;;;;4.63;1.70;;;10.40;99.90;;;;;;6321378;22;20018;-75
2023/01/02 12:03:59;;;;;;;5.22;1.75;;;10.40;99.90;;;;;;6321250;22;20023;-77
2023/01/02 12:06:50;;;;;;;5.70;2.00;;;9.70;99.90;;;;;;6318046;22;20014;-77
2023/01/02 12:09:18;;;;;;;4.15;1.80;;;10.10;99.90;;;;;;6374598;22;20063;-76
2023/01/02 12:11:47;;;;;;;5.70;2.00;;;10.20;99.90;;;;;;6345806;22;20034;-75
2023/01/02 12:14:20;;;;;;;3.40;1.90;;;10.30;99.90;;;;;;6346901;22;20240;-76
2023/01/02 12:16:53;;;;;;;4.30;1.77;;;10.40;99.90;;;;;;6347101;22;20003;-76
2023/01/02 12:19:25;;;;;;;4.00;1.88;;;10.30;99.90;;;;;;6345947;22;20014;-76
2023/01/02 12:22:09;;;;;;;6.43;2.00;;;10.20;99.90;;;;;;6319512;22;20006;-75
2023/01/02 12:25:12;;;;;;;4.93;2.10;;;9.60;99.90;;;;;;6318923;22;20006;-75
2023/01/02 12:27:52;;;;;;;3.33;1.83;;;9.80;99.90;;;;;;6344096;22;20014;-77
2023/01/02 12:30:19;;;;;;;8.02;2.10;;;9.50;99.90;;;;;;6345250;22;20055;-77
2023/01/02 12:33:20;;;;;;;5.43;1.90;;;9.60;99.90;;;;;;6345641;22;20010;-76
2023/01/02 12:36:12;;;;;;;6.03;1.80;;;10.00;99.90;;;;;;6321228;22;20028;-76
2023/01/02 12:38:56;;;;;;;7.88;2.47;;;9.50;99.90;;;;;;6345942;22;20021;-76
2023/01/02 12:41:36;;;;;;;3.08;2.00;;;9.70;99.90;;;;;;6320169;22;20313;-77
2023/01/02 12:44:25;;;;;;;8.30;2.83;;;9.60;99.90;;;;;;6319503;22;20018;-76
2023/01/02 12:47:34;;;;;;;8.93;2.90;;;9.30;99.90;;;;;;6373696;22;20059;-78
2023/01/02 12:50:20;;;;;;;11.88;2.53;;;9.50;99.90;;;;;;6346206;22;20018;-76
2023/01/02 12:52:55;;;;;;;7.80;2.13;;;9.90;99.90;;;;;;6346551;22;20067;-75
2023/01/02 12:55:44;;;;;;;;;;;9.70;99.90;;;;;;6320842;22;20316;-75
2023/01/02 12:58:13;;;;;;;8.35;1.88;;;10.00;99.90;;;;;;6346750;22;20177;-77
2023/01/02 13:01:12;;;;;;;9.23;1.92;;;9.70;99.90;;;;;;6346309;22;20022;-77
2023/01/02 13:03:53;;;;;;;7.35;2.20;;;9.50;99.90;;;;;;6319968;22;20086;-76
2023/01/02 13:06:37;;;;;;;8.88;1.92;;;9.80;99.90;;;;;;6341931;22;20021;-77
2023/01/02 13:09:18;;;;;;;7.88;2.40;;;10.00;99.90;;;;;;6342802;22;20098;-76
2023/01/02 13:12:02;;;;;;;7.90;1.98;;;10.00;99.90;;;;;;6317060;22;20019;-76
2023/01/02 13:14:41;;;;;;;10.68;3.15;;;9.40;99.90;;;;;;6343116;22;20032;-76